Middletown, OH

6:41 AM EDT on June 27, 2017 (GMT -0400)
Hook Field Municipal

Weather History for KMWO - January, 2013

Change the Weather History Date:

Saturday, January 5, 2013

  Actual Average (KFFO) Record (KFFO)
Temperature  
Mean Temperature 26 °F -  
Max Temperature 38 °F 36 °F 62 °F (1998)
Min Temperature 15 °F 21 °F -5 °F (1999)
Degree Days  
Heating Degree Days 38    
Moisture  
Dew Point 25 °F    
Average Humidity 88    
Maximum Humidity 100    
Minimum Humidity 66    
Precipitation  
Precipitation 0.00 in - - ()
Sea Level Pressure  
Sea Level Pressure 30.29 in    
Wind  
Wind Speed 4 mph (SW)    
Max Wind Speed 12 mph    
Max Gust Speed -    
Visibility 8 miles    
Events Fog    
Averages and records for this station are not official NWS values.
T = Trace of Precipitation, MM = Missing Value Source: NWS Daily Summary

Daily Weather History Graph

Daily Weather History Graph

Search for Another Location

Airport or City:

Trip Planner

Search our weather history database for the weather conditions in past years. The results will help you decide how hot, cold, wet, or windy it might be!

Date:

Astronomy

Jan. 05, 2013 Rise Set
Actual Time 7:58 AM EST 5:28 PM EST
Civil Twilight 7:28 AM EST 5:58 PM EST
Nautical Twilight 6:54 AM EST 6:31 PM EST
Astronomical Twilight 6:22 AM EST 7:04 PM EST
Moon 1:04 AM EST (1/5) 12:16 PM EST (1/5)
Length of Visible Light 10h 29m
Length of Day
9h 29m
Last Quarter, 44% of the Moon is Illuminated
Jan 5
Last Quarter
Jan 11
New
Jan 18
First Quarter
Jan 26
Full
Feb 3
Last Quarter

Hourly Weather History & Observations

Time (EST) Temp. Windchill Dew Point Humidity Pressure Visibility Wind Dir Wind Speed Gust Speed Precip Events Conditions
12:15 AM 25.3 °F 19.7 °F 23.0 °F 91% 30.36 in 10.0 mi SW 4.6 mph - N/A   Clear
12:35 AM 21.4 °F 16.6 °F 19.8 °F 93% 30.36 in 10.0 mi SW 3.5 mph - N/A   Clear
12:55 AM 22.8 °F 18.2 °F 21.6 °F 95% 30.35 in 10.0 mi WSW 3.5 mph - N/A   Clear
1:15 AM 20.7 °F 15.8 °F 19.8 °F 96% 30.35 in 7.0 mi West 3.5 mph - N/A   Clear
1:35 AM 20.3 °F - 20.3 °F 100% 30.35 in 7.0 mi Calm Calm - N/A   Clear
1:55 AM 19.4 °F - 19.4 °F 100% 30.35 in 7.0 mi Calm Calm - N/A   Clear
2:15 AM 18.7 °F - 18.7 °F 100% 30.35 in 5.0 mi Calm Calm - N/A   Clear
2:35 AM 18.5 °F - 18.5 °F 100% 30.36 in 4.0 mi Calm Calm - N/A   Clear
2:55 AM 17.6 °F - 17.6 °F 100% 30.36 in 4.0 mi Calm Calm - N/A   Clear
3:15 AM 18.3 °F 13.1 °F 18.3 °F 100% 30.37 in 5.0 mi SW 3.5 mph - N/A   Clear
3:35 AM 19.6 °F 13.0 °F 19.6 °F 100% 30.37 in 4.0 mi SSW 4.6 mph - N/A   Clear
3:55 AM 19.0 °F 13.9 °F 19.0 °F 100% 30.37 in 4.0 mi SW 3.5 mph - N/A   Clear
4:15 AM 19.2 °F 14.1 °F 19.2 °F 100% 30.37 in 5.0 mi WSW 3.5 mph - N/A   Clear
4:35 AM 19.0 °F 13.9 °F 19.0 °F 100% 30.37 in 4.0 mi WSW 3.5 mph - N/A   Clear
4:55 AM 19.6 °F 14.5 °F 19.6 °F 100% 30.36 in 4.0 mi WSW 3.5 mph - N/A   Clear
5:15 AM 19.0 °F - 19.0 °F 100% 30.36 in 5.0 mi Calm Calm - N/A   Clear
5:35 AM 17.6 °F - 17.6 °F 100% 30.36 in 3.0 mi Calm Calm - N/A   Clear
5:55 AM 16.5 °F - 16.5 °F 100% 30.37 in 4.0 mi Calm Calm - N/A   Clear
6:15 AM 17.6 °F - 17.6 °F 100% 30.37 in 4.0 mi Calm Calm - N/A   Clear
6:35 AM 18.0 °F - 18.0 °F 100% 30.37 in 4.0 mi Calm Calm - N/A   Clear
6:55 AM 18.7 °F - 18.7 °F 100% 30.38 in 3.0 mi Calm Calm - N/A   Clear
7:15 AM 17.6 °F - 17.6 °F 100% 30.37 in 2.0 mi Calm Calm - N/A   Clear
7:35 AM 15.6 °F - 15.6 °F 100% 30.37 in 2.0 mi Calm Calm - N/A   Clear
8:15 AM 15.4 °F - 15.4 °F 100% 30.37 in 0.2 mi Calm Calm - N/A Fog Light Freezing Fog
8:35 AM 17.6 °F - 17.6 °F 100% 30.37 in 2.0 mi Calm Calm - N/A   Clear
8:55 AM 17.6 °F - 17.6 °F 100% 30.36 in 3.0 mi Calm Calm - N/A   Clear
9:15 AM 17.6 °F - 17.6 °F 100% 30.36 in 2.5 mi Calm Calm - N/A   Clear
9:35 AM 17.6 °F 12.3 °F 17.6 °F 100% 30.36 in 3.0 mi WSW 3.5 mph - N/A   Clear
9:55 AM 25.3 °F 21.1 °F 25.3 °F 100% 30.37 in 4.0 mi WSW 3.5 mph - N/A   Clear
10:15 AM 27.9 °F 24.0 °F 27.9 °F 100% 30.37 in 7.0 mi SW 3.5 mph - N/A   Clear
10:55 AM 30.2 °F 23.4 °F 30.2 °F 100% 30.37 in 10.0 mi SSW 6.9 mph - N/A   Clear
11:15 AM 30.2 °F 25.4 °F 30.2 °F 100% 30.36 in 10.0 mi SSW 4.6 mph - N/A   Clear
12:15 PM 35.1 °F 27.9 °F 30.0 °F 82% 30.32 in 10.0 mi SW 9.2 mph - N/A   Clear
12:35 PM 35.1 °F 27.9 °F 29.3 °F 80% 30.31 in 10.0 mi SW 9.2 mph - N/A   Clear
12:55 PM 36.0 °F 30.3 °F 29.7 °F 78% 30.29 in 10.0 mi SW 6.9 mph - N/A   Clear
1:15 PM 37.6 °F 31.6 °F 30.2 °F 75% 30.28 in 10.0 mi SW 8.1 mph - N/A   Clear
1:35 PM 38.1 °F 31.7 °F 29.7 °F 72% 30.27 in 10.0 mi SSW 9.2 mph - N/A   Clear
1:55 PM 37.6 °F 30.5 °F 28.4 °F 69% 30.25 in 10.0 mi SSW 10.4 mph - N/A   Scattered Clouds
2:15 PM 38.8 °F 31.6 °F 29.1 °F 68% 30.24 in 10.0 mi SSW 11.5 mph - N/A   Mostly Cloudy
2:35 PM 38.8 °F 32.1 °F 28.2 °F 66% 30.23 in 10.0 mi SW 10.4 mph - N/A   Overcast
2:55 PM 37.8 °F 31.8 °F 28.6 °F 69% 30.23 in 10.0 mi SW 8.1 mph - N/A   Overcast
3:15 PM 37.8 °F 33.3 °F 29.1 °F 71% 30.22 in 10.0 mi SW 5.8 mph - N/A   Overcast
3:35 PM 37.6 °F 32.3 °F 29.7 °F 73% 30.22 in 10.0 mi SW 6.9 mph - N/A   Overcast
3:55 PM 37.6 °F 32.3 °F 30.0 °F 74% 30.23 in 10.0 mi SW 6.9 mph - N/A   Overcast
4:15 PM 37.6 °F 32.3 °F 29.8 °F 74% 30.22 in 10.0 mi SW 6.9 mph - N/A   Overcast
4:35 PM 37.6 °F 33.1 °F 30.4 °F 75% 30.22 in 10.0 mi SSW 5.8 mph - N/A   Overcast
4:55 PM 37.6 °F 33.1 °F 30.6 °F 76% 30.22 in 10.0 mi SW 5.8 mph - N/A   Overcast
5:15 PM 37.6 °F 31.6 °F 30.4 °F 75% 30.23 in 10.0 mi SSW 8.1 mph - N/A   Overcast
5:55 PM 37.6 °F 33.1 °F 30.4 °F 75% 30.22 in 10.0 mi SW 5.8 mph - N/A   Overcast
6:15 PM 37.6 °F 35.1 °F 30.9 °F 77% 30.22 in 10.0 mi WSW 3.5 mph - N/A   Overcast
6:35 PM 37.6 °F 34.0 °F 30.9 °F 77% 30.21 in 10.0 mi South 4.6 mph - N/A   Overcast
6:55 PM 37.6 °F 34.0 °F 30.7 °F 76% 30.22 in 10.0 mi SW 4.6 mph - N/A   Overcast
7:15 PM 37.6 °F 35.1 °F 31.1 °F 77% 30.22 in 10.0 mi SW 3.5 mph - N/A   Overcast
7:35 PM 37.6 °F 31.6 °F 31.3 °F 78% 30.21 in 10.0 mi WSW 8.1 mph - N/A   Overcast
7:55 PM 37.6 °F 31.6 °F 30.2 °F 75% 30.21 in 10.0 mi WSW 8.1 mph - N/A   Overcast
8:15 PM 37.6 °F 31.6 °F 29.8 °F 74% 30.21 in 10.0 mi WSW 8.1 mph - N/A   Overcast
8:55 PM 35.2 °F 28.8 °F 29.8 °F 81% 30.20 in 10.0 mi SW 8.1 mph - N/A   Overcast
9:15 PM 35.1 °F 30.1 °F 30.0 °F 82% 30.20 in 10.0 mi WSW 5.8 mph - N/A   Overcast
9:35 PM 35.1 °F 30.1 °F 29.8 °F 81% 30.20 in 10.0 mi WSW 5.8 mph - N/A   Overcast
9:55 PM 35.1 °F 29.3 °F 30.2 °F 82% 30.20 in 10.0 mi SW 6.9 mph - N/A   Overcast
10:15 PM 35.1 °F 28.6 °F 30.7 °F 84% 30.20 in 10.0 mi SW 8.1 mph - N/A   Overcast
10:35 PM 32.9 °F 25.9 °F 29.5 °F 87% 30.20 in 10.0 mi SW 8.1 mph - N/A   Mostly Cloudy
10:55 PM 32.9 °F 26.7 °F 29.5 °F 87% 30.20 in 10.0 mi SW 6.9 mph - N/A   Mostly Cloudy
11:15 PM 33.4 °F 27.3 °F 30.4 °F 89% 30.19 in 10.0 mi SW 6.9 mph - N/A   Overcast
11:35 PM 32.5 °F 26.2 °F 29.3 °F 88% 30.18 in 10.0 mi SW 6.9 mph - N/A   Overcast
11:55 PM 32.5 °F 27.1 °F 29.3 °F 88% 30.17 in 10.0 mi SW 5.8 mph - N/A   Mostly Cloudy